sensor_id;sensor_type;location;lat;lon;timestamp;temperature;humidity
55988;DHT22;67216;50.930;4.514;2023-02-27T00:01:43;1.00;76.50
55988;DHT22;67216;50.930;4.514;2023-02-27T00:04:09;0.80;76.80
55988;DHT22;67216;50.930;4.514;2023-02-27T00:06:34;0.70;77.20
55988;DHT22;67216;50.930;4.514;2023-02-27T00:09:01;0.80;77.10
55988;DHT22;67216;50.930;4.514;2023-02-27T00:11:27;0.80;77.10
55988;DHT22;67216;50.930;4.514;2023-02-27T00:13:53;0.80;76.80
55988;DHT22;67216;50.930;4.514;2023-02-27T00:16:19;0.90;77.00
55988;DHT22;67216;50.930;4.514;2023-02-27T00:18:45;0.90;76.80
55988;DHT22;67216;50.930;4.514;2023-02-27T00:21:15;1.00;76.60
55988;DHT22;67216;50.930;4.514;2023-02-27T00:23:43;0.80;76.80
55988;DHT22;67216;50.930;4.514;2023-02-27T00:26:09;0.90;76.80
55988;DHT22;67216;50.930;4.514;2023-02-27T00:28:35;0.80;77.00
55988;DHT22;67216;50.930;4.514;2023-02-27T00:31:00;0.80;77.10
55988;DHT22;67216;50.930;4.514;2023-02-27T00:33:29;0.80;77.20
55988;DHT22;67216;50.930;4.514;2023-02-27T00:35:58;0.70;77.30
55988;DHT22;67216;50.930;4.514;2023-02-27T00:38:27;0.70;77.50
55988;DHT22;67216;50.930;4.514;2023-02-27T00:40:53;0.70;77.70
55988;DHT22;67216;50.930;4.514;2023-02-27T00:43:20;0.70;77.30
55988;DHT22;67216;50.930;4.514;2023-02-27T00:45:47;0.70;77.40
55988;DHT22;67216;50.930;4.514;2023-02-27T00:48:15;0.70;77.50
55988;DHT22;67216;50.930;4.514;2023-02-27T00:50:41;0.60;77.80
55988;DHT22;67216;50.930;4.514;2023-02-27T00:53:06;0.60;78.00
55988;DHT22;67216;50.930;4.514;2023-02-27T00:55:35;0.50;77.90
55988;DHT22;67216;50.930;4.514;2023-02-27T00:58:03;0.60;78.10
55988;DHT22;67216;50.930;4.514;2023-02-27T01:00:34;0.70;77.80
55988;DHT22;67216;50.930;4.514;2023-02-27T01:03:00;0.60;77.50
55988;DHT22;67216;50.930;4.514;2023-02-27T01:05:26;0.70;77.70
55988;DHT22;67216;50.930;4.514;2023-02-27T01:07:51;0.60;77.70
55988;DHT22;67216;50.930;4.514;2023-02-27T01:10:18;0.40;78.30
55988;DHT22;67216;50.930;4.514;2023-02-27T01:12:44;0.40;78.70
55988;DHT22;67216;50.930;4.514;2023-02-27T01:15:12;0.40;78.60
55988;DHT22;67216;50.930;4.514;2023-02-27T01:17:38;0.50;79.00
55988;DHT22;67216;50.930;4.514;2023-02-27T01:20:06;0.50;78.20
55988;DHT22;67216;50.930;4.514;2023-02-27T01:22:32;0.40;78.70
55988;DHT22;67216;50.930;4.514;2023-02-27T01:24:59;0.40;78.50
55988;DHT22;67216;50.930;4.514;2023-02-27T01:27:25;0.40;78.60
55988;DHT22;67216;50.930;4.514;2023-02-27T01:29:53;0.40;78.50
55988;DHT22;67216;50.930;4.514;2023-02-27T01:32:19;0.40;78.30
55988;DHT22;67216;50.930;4.514;2023-02-27T01:34:44;0.30;78.40
55988;DHT22;67216;50.930;4.514;2023-02-27T01:37:11;0.20;78.90
55988;DHT22;67216;50.930;4.514;2023-02-27T01:39:37;0.10;79.60
55988;DHT22;67216;50.930;4.514;2023-02-27T01:42:03;0.10;79.70
55988;DHT22;67216;50.930;4.514;2023-02-27T01:47:49;0.20;79.60
55988;DHT22;67216;50.930;4.514;2023-02-27T01:50:17;0.10;79.40
55988;DHT22;67216;50.930;4.514;2023-02-27T01:52:46;0.10;79.90
55988;DHT22;67216;50.930;4.514;2023-02-27T01:55:15;0.10;79.90
55988;DHT22;67216;50.930;4.514;2023-02-27T01:57:42;0.20;79.70
55988;DHT22;67216;50.930;4.514;2023-02-27T02:00:10;0.40;78.90
55988;DHT22;67216;50.930;4.514;2023-02-27T02:02:40;0.10;79.30
55988;DHT22;67216;50.930;4.514;2023-02-27T02:05:07;0.10;79.80
55988;DHT22;67216;50.930;4.514;2023-02-27T02:07:35;0.00;80.30
55988;DHT22;67216;50.930;4.514;2023-02-27T02:10:04;0.00;80.20
55988;DHT22;67216;50.930;4.514;2023-02-27T02:12:37;0.00;80.30
55988;DHT22;67216;50.930;4.514;2023-02-27T02:15:03;0.00;80.30
55988;DHT22;67216;50.930;4.514;2023-02-27T02:23:04;-0.20;81.20
55988;DHT22;67216;50.930;4.514;2023-02-27T02:25:42;-0.10;80.80
55988;DHT22;67216;50.930;4.514;2023-02-27T02:45:11;-0.40;81.40
55988;DHT22;67216;50.930;4.514;2023-02-27T02:48:02;-0.60;82.10
55988;DHT22;67216;50.930;4.514;2023-02-27T02:50:43;-0.60;82.90
55988;DHT22;67216;50.930;4.514;2023-02-27T03:01:44;-0.60;83.30
55988;DHT22;67216;50.930;4.514;2023-02-27T03:04:25;-0.60;83.10
55988;DHT22;67216;50.930;4.514;2023-02-27T03:07:08;-0.60;83.10
55988;DHT22;67216;50.930;4.514;2023-02-27T03:09:44;-0.60;83.00
55988;DHT22;67216;50.930;4.514;2023-02-27T03:12:14;-0.50;82.80
55988;DHT22;67216;50.930;4.514;2023-02-27T03:14:52;-0.60;83.10
55988;DHT22;67216;50.930;4.514;2023-02-27T03:17:38;-0.50;82.90
55988;DHT22;67216;50.930;4.514;2023-02-27T03:20:11;-0.50;82.60
55988;DHT22;67216;50.930;4.514;2023-02-27T03:22:43;-0.50;82.60
55988;DHT22;67216;50.930;4.514;2023-02-27T03:25:14;-0.50;82.70
55988;DHT22;67216;50.930;4.514;2023-02-27T03:28:09;-0.40;82.30
55988;DHT22;67216;50.930;4.514;2023-02-27T03:30:41;-0.50;82.00
55988;DHT22;67216;50.930;4.514;2023-02-27T03:33:29;-0.60;83.20
55988;DHT22;67216;50.930;4.514;2023-02-27T03:36:11;-0.70;83.30
55988;DHT22;67216;50.930;4.514;2023-02-27T03:46:25;-0.60;83.40
55988;DHT22;67216;50.930;4.514;2023-02-27T03:48:54;-0.60;83.30
55988;DHT22;67216;50.930;4.514;2023-02-27T03:51:24;-0.70;83.50
55988;DHT22;67216;50.930;4.514;2023-02-27T03:54:13;-0.70;83.60
55988;DHT22;67216;50.930;4.514;2023-02-27T03:57:02;-0.60;83.40
55988;DHT22;67216;50.930;4.514;2023-02-27T03:59:32;-0.60;83.30
55988;DHT22;67216;50.930;4.514;2023-02-27T04:01:59;-0.70;83.30
55988;DHT22;67216;50.930;4.514;2023-02-27T04:04:30;-0.80;83.70
55988;DHT22;67216;50.930;4.514;2023-02-27T04:10:15;-0.80;83.70
55988;DHT22;67216;50.930;4.514;2023-02-27T04:15:45;-0.80;84.00
55988;DHT22;67216;50.930;4.514;2023-02-27T04:21:09;-0.90;84.50
55988;DHT22;67216;50.930;4.514;2023-02-27T04:24:15;-0.90;84.50
55988;DHT22;67216;50.930;4.514;2023-02-27T04:26:48;-0.80;84.20
55988;DHT22;67216;50.930;4.514;2023-02-27T04:32:32;-0.70;83.90
55988;DHT22;67216;50.930;4.514;2023-02-27T04:35:12;-0.60;82.80
55988;DHT22;67216;50.930;4.514;2023-02-27T04:37:53;-0.80;83.10
55988;DHT22;67216;50.930;4.514;2023-02-27T04:40:27;-0.90;84.10
55988;DHT22;67216;50.930;4.514;2023-02-27T04:42:55;-1.00;84.50
55988;DHT22;67216;50.930;4.514;2023-02-27T04:45:25;-1.00;85.00
55988;DHT22;67216;50.930;4.514;2023-02-27T04:48:01;-1.00;84.90
55988;DHT22;67216;50.930;4.514;2023-02-27T04:50:39;-0.80;84.50
55988;DHT22;67216;50.930;4.514;2023-02-27T04:56:10;-0.90;84.50
55988;DHT22;67216;50.930;4.514;2023-02-27T04:58:49;-1.00;84.80
55988;DHT22;67216;50.930;4.514;2023-02-27T05:01:22;-0.90;85.10
55988;DHT22;67216;50.930;4.514;2023-02-27T05:03:52;-1.00;84.40
55988;DHT22;67216;50.930;4.514;2023-02-27T05:06:23;-0.90;83.80
55988;DHT22;67216;50.930;4.514;2023-02-27T05:09:19;-0.80;83.40
55988;DHT22;67216;50.930;4.514;2023-02-27T05:11:58;-1.10;84.50
55988;DHT22;67216;50.930;4.514;2023-02-27T05:17:04;-1.00;84.80
55988;DHT22;67216;50.930;4.514;2023-02-27T05:19:32;-1.10;85.00
55988;DHT22;67216;50.930;4.514;2023-02-27T05:28:03;-1.50;87.30
55988;DHT22;67216;50.930;4.514;2023-02-27T05:33:37;-1.60;88.20
55988;DHT22;67216;50.930;4.514;2023-02-27T05:36:16;-1.60;88.20
55988;DHT22;67216;50.930;4.514;2023-02-27T05:38:46;-1.60;87.90
55988;DHT22;67216;50.930;4.514;2023-02-27T05:41:17;-1.60;87.90
55988;DHT22;67216;50.930;4.514;2023-02-27T05:43:53;-1.60;88.00
55988;DHT22;67216;50.930;4.514;2023-02-27T05:46:27;-1.70;88.50
55988;DHT22;67216;50.930;4.514;2023-02-27T05:49:23;-1.50;88.40
55988;DHT22;67216;50.930;4.514;2023-02-27T05:51:52;-1.40;87.30
55988;DHT22;67216;50.930;4.514;2023-02-27T05:54:32;-1.40;86.90
55988;DHT22;67216;50.930;4.514;2023-02-27T05:56:58;-1.40;86.90
55988;DHT22;67216;50.930;4.514;2023-02-27T05:59:33;-1.40;87.00
55988;DHT22;67216;50.930;4.514;2023-02-27T06:02:00;-1.40;86.70
55988;DHT22;67216;50.930;4.514;2023-02-27T06:04:25;-1.30;86.40
55988;DHT22;67216;50.930;4.514;2023-02-27T06:06:53;-1.30;86.40
55988;DHT22;67216;50.930;4.514;2023-02-27T06:09:19;-1.30;86.40
55988;DHT22;67216;50.930;4.514;2023-02-27T06:11:45;-1.30;86.20
55988;DHT22;67216;50.930;4.514;2023-02-27T06:14:11;-1.40;86.60
55988;DHT22;67216;50.930;4.514;2023-02-27T06:16:36;-1.40;86.70
55988;DHT22;67216;50.930;4.514;2023-02-27T06:19:06;-1.40;86.70
55988;DHT22;67216;50.930;4.514;2023-02-27T06:21:31;-1.50;87.10
55988;DHT22;67216;50.930;4.514;2023-02-27T06:23:58;-1.40;86.80
55988;DHT22;67216;50.930;4.514;2023-02-27T06:26:23;-1.50;87.10
55988;DHT22;67216;50.930;4.514;2023-02-27T06:28:49;-1.50;87.30
55988;DHT22;67216;50.930;4.514;2023-02-27T06:31:18;-1.50;87.30
55988;DHT22;67216;50.930;4.514;2023-02-27T06:33:44;-1.50;87.20
55988;DHT22;67216;50.930;4.514;2023-02-27T06:36:09;-1.50;87.30
55988;DHT22;67216;50.930;4.514;2023-02-27T06:38:35;-1.40;88.10
55988;DHT22;67216;50.930;4.514;2023-02-27T06:41:01;-1.30;86.60
55988;DHT22;67216;50.930;4.514;2023-02-27T06:43:31;-1.30;86.80
55988;DHT22;67216;50.930;4.514;2023-02-27T06:45:59;-1.40;87.80
55988;DHT22;67216;50.930;4.514;2023-02-27T06:48:27;-1.10;87.10
55988;DHT22;67216;50.930;4.514;2023-02-27T06:50:54;-0.40;85.90
55988;DHT22;67216;50.930;4.514;2023-02-27T06:53:21;0.40;82.20
55988;DHT22;67216;50.930;4.514;2023-02-27T06:55:47;1.10;78.10
55988;DHT22;67216;50.930;4.514;2023-02-27T06:58:14;1.60;75.80
55988;DHT22;67216;50.930;4.514;2023-02-27T07:00:42;2.10;73.70
55988;DHT22;67216;50.930;4.514;2023-02-27T07:03:09;2.50;71.10
55988;DHT22;67216;50.930;4.514;2023-02-27T07:05:35;2.70;69.80
55988;DHT22;67216;50.930;4.514;2023-02-27T07:08:01;3.30;68.60
55988;DHT22;67216;50.930;4.514;2023-02-27T07:10:30;3.60;67.10
55988;DHT22;67216;50.930;4.514;2023-02-27T07:12:58;4.10;64.70
55988;DHT22;67216;50.930;4.514;2023-02-27T07:15:24;4.50;63.50
55988;DHT22;67216;50.930;4.514;2023-02-27T07:17:50;5.20;60.70
55988;DHT22;67216;50.930;4.514;2023-02-27T07:20:18;5.30;59.00
55988;DHT22;67216;50.930;4.514;2023-02-27T07:22:46;6.00;58.20
55988;DHT22;67216;50.930;4.514;2023-02-27T07:25:14;6.20;56.70
55988;DHT22;67216;50.930;4.514;2023-02-27T07:27:40;6.30;57.30
55988;DHT22;67216;50.930;4.514;2023-02-27T07:30:09;6.30;55.50
55988;DHT22;67216;50.930;4.514;2023-02-27T07:32:42;6.40;55.20
55988;DHT22;67216;50.930;4.514;2023-02-27T07:35:08;6.50;54.80
55988;DHT22;67216;50.930;4.514;2023-02-27T07:37:35;6.50;54.90
55988;DHT22;67216;50.930;4.514;2023-02-27T07:40:00;6.10;55.60
55988;DHT22;67216;50.930;4.514;2023-02-27T07:42:26;5.80;56.90
55988;DHT22;67216;50.930;4.514;2023-02-27T07:44:52;5.80;56.90
55988;DHT22;67216;50.930;4.514;2023-02-27T07:47:19;5.70;57.40
55988;DHT22;67216;50.930;4.514;2023-02-27T07:49:45;6.30;56.20
55988;DHT22;67216;50.930;4.514;2023-02-27T07:52:11;6.90;55.30
55988;DHT22;67216;50.930;4.514;2023-02-27T07:54:37;7.20;54.50
55988;DHT22;67216;50.930;4.514;2023-02-27T07:57:05;7.20;53.40
55988;DHT22;67216;50.930;4.514;2023-02-27T07:59:33;6.90;54.40
55988;DHT22;67216;50.930;4.514;2023-02-27T08:01:59;6.70;54.40
55988;DHT22;67216;50.930;4.514;2023-02-27T08:04:27;6.60;54.70
55988;DHT22;67216;50.930;4.514;2023-02-27T08:06:53;6.70;54.70
55988;DHT22;67216;50.930;4.514;2023-02-27T08:09:19;7.00;54.50
55988;DHT22;67216;50.930;4.514;2023-02-27T08:11:45;7.00;54.40
55988;DHT22;67216;50.930;4.514;2023-02-27T08:14:11;7.10;54.10
55988;DHT22;67216;50.930;4.514;2023-02-27T08:16:37;7.60;53.30
55988;DHT22;67216;50.930;4.514;2023-02-27T08:19:02;7.30;53.10
55988;DHT22;67216;50.930;4.514;2023-02-27T08:21:28;7.50;53.70
55988;DHT22;67216;50.930;4.514;2023-02-27T08:23:54;8.00;51.90
55988;DHT22;67216;50.930;4.514;2023-02-27T08:26:20;7.90;51.00
55988;DHT22;67216;50.930;4.514;2023-02-27T08:28:46;8.30;51.50
55988;DHT22;67216;50.930;4.514;2023-02-27T08:31:14;8.00;51.40
55988;DHT22;67216;50.930;4.514;2023-02-27T08:33:40;8.10;51.00
55988;DHT22;67216;50.930;4.514;2023-02-27T08:36:06;7.80;51.70
55988;DHT22;67216;50.930;4.514;2023-02-27T08:38:32;7.90;52.40
55988;DHT22;67216;50.930;4.514;2023-02-27T08:41:00;8.50;50.90
55988;DHT22;67216;50.930;4.514;2023-02-27T08:43:26;8.40;50.00
55988;DHT22;67216;50.930;4.514;2023-02-27T08:45:51;9.00;51.00
55988;DHT22;67216;50.930;4.514;2023-02-27T08:48:19;9.30;48.80
55988;DHT22;67216;50.930;4.514;2023-02-27T08:50:48;9.10;49.10
55988;DHT22;67216;50.930;4.514;2023-02-27T08:53:13;8.90;49.60
55988;DHT22;67216;50.930;4.514;2023-02-27T08:55:40;8.60;50.30
55988;DHT22;67216;50.930;4.514;2023-02-27T08:58:07;9.00;50.20
55988;DHT22;67216;50.930;4.514;2023-02-27T09:00:32;9.40;49.20
55988;DHT22;67216;50.930;4.514;2023-02-27T09:03:01;9.90;47.90
55988;DHT22;67216;50.930;4.514;2023-02-27T09:05:27;10.20;47.20
55988;DHT22;67216;50.930;4.514;2023-02-27T09:07:53;10.30;46.80
55988;DHT22;67216;50.930;4.514;2023-02-27T09:10:18;10.10;45.80
55988;DHT22;67216;50.930;4.514;2023-02-27T09:12:47;9.70;47.50
55988;DHT22;67216;50.930;4.514;2023-02-27T09:15:13;9.30;47.20
55988;DHT22;67216;50.930;4.514;2023-02-27T09:17:39;8.60;49.60
55988;DHT22;67216;50.930;4.514;2023-02-27T09:20:05;9.10;49.10
55988;DHT22;67216;50.930;4.514;2023-02-27T09:22:33;8.70;48.60
55988;DHT22;67216;50.930;4.514;2023-02-27T09:25:03;8.50;50.20
55988;DHT22;67216;50.930;4.514;2023-02-27T09:27:29;9.10;49.30
55988;DHT22;67216;50.930;4.514;2023-02-27T09:29:54;9.40;47.30
55988;DHT22;67216;50.930;4.514;2023-02-27T09:32:24;9.30;46.60
55988;DHT22;67216;50.930;4.514;2023-02-27T09:34:51;8.90;47.30
55988;DHT22;67216;50.930;4.514;2023-02-27T09:37:17;9.00;47.90
55988;DHT22;67216;50.930;4.514;2023-02-27T09:39:44;8.50;47.00
55988;DHT22;67216;50.930;4.514;2023-02-27T09:42:18;8.20;49.30
55988;DHT22;67216;50.930;4.514;2023-02-27T09:44:47;8.70;47.80
55988;DHT22;67216;50.930;4.514;2023-02-27T09:52:41;8.70;47.60
55988;DHT22;67216;50.930;4.514;2023-02-27T09:55:21;8.90;47.20
55988;DHT22;67216;50.930;4.514;2023-02-27T09:58:28;8.40;47.50
55988;DHT22;67216;50.930;4.514;2023-02-27T10:01:22;7.20;51.20
55988;DHT22;67216;50.930;4.514;2023-02-27T10:04:28;6.00;54.60
55988;DHT22;67216;50.930;4.514;2023-02-27T10:07:26;5.50;57.00
55988;DHT22;67216;50.930;4.514;2023-02-27T10:15:30;4.90;58.90
55988;DHT22;67216;50.930;4.514;2023-02-27T10:20:45;4.80;58.10
55988;DHT22;67216;50.930;4.514;2023-02-27T10:23:18;4.80;58.50
55988;DHT22;67216;50.930;4.514;2023-02-27T10:25:48;4.80;58.60
55988;DHT22;67216;50.930;4.514;2023-02-27T10:28:19;4.80;59.20
55988;DHT22;67216;50.930;4.514;2023-02-27T10:30:51;4.90;58.70
55988;DHT22;67216;50.930;4.514;2023-02-27T10:33:39;4.90;58.40
55988;DHT22;67216;50.930;4.514;2023-02-27T10:36:06;4.80;58.10
55988;DHT22;67216;50.930;4.514;2023-02-27T10:38:48;4.80;58.00
55988;DHT22;67216;50.930;4.514;2023-02-27T10:41:19;4.80;58.60
55988;DHT22;67216;50.930;4.514;2023-02-27T10:43:45;4.90;58.20
55988;DHT22;67216;50.930;4.514;2023-02-27T10:46:34;5.10;56.90
55988;DHT22;67216;50.930;4.514;2023-02-27T10:49:19;5.20;56.80
55988;DHT22;67216;50.930;4.514;2023-02-27T10:51:47;5.30;57.40
55988;DHT22;67216;50.930;4.514;2023-02-27T10:54:28;5.40;55.20
55988;DHT22;67216;50.930;4.514;2023-02-27T10:56:56;5.20;56.40
55988;DHT22;67216;50.930;4.514;2023-02-27T11:01:54;5.40;57.00
55988;DHT22;67216;50.930;4.514;2023-02-27T11:04:37;5.20;56.40
55988;DHT22;67216;50.930;4.514;2023-02-27T11:07:13;5.40;58.10
55988;DHT22;67216;50.930;4.514;2023-02-27T11:09:59;5.50;56.70
55988;DHT22;67216;50.930;4.514;2023-02-27T11:12:31;5.40;56.90
55988;DHT22;67216;50.930;4.514;2023-02-27T11:15:01;5.50;56.70
55988;DHT22;67216;50.930;4.514;2023-02-27T11:17:32;5.30;57.20
55988;DHT22;67216;50.930;4.514;2023-02-27T11:20:01;5.50;57.10
55988;DHT22;67216;50.930;4.514;2023-02-27T11:22:31;5.50;56.70
55988;DHT22;67216;50.930;4.514;2023-02-27T11:27:42;5.70;56.10
55988;DHT22;67216;50.930;4.514;2023-02-27T11:30:27;5.90;56.70
55988;DHT22;67216;50.930;4.514;2023-02-27T11:32:58;5.60;56.20
55988;DHT22;67216;50.930;4.514;2023-02-27T11:38:03;5.40;55.50
55988;DHT22;67216;50.930;4.514;2023-02-27T11:40:32;5.60;56.20
55988;DHT22;67216;50.930;4.514;2023-02-27T11:43:06;5.60;54.50
55988;DHT22;67216;50.930;4.514;2023-02-27T11:45:40;5.60;55.60
55988;DHT22;67216;50.930;4.514;2023-02-27T11:48:15;5.80;55.30
55988;DHT22;67216;50.930;4.514;2023-02-27T11:51:02;5.90;54.50
55988;DHT22;67216;50.930;4.514;2023-02-27T12:01:47;5.70;54.50
55988;DHT22;67216;50.930;4.514;2023-02-27T12:04:20;5.70;55.50
55988;DHT22;67216;50.930;4.514;2023-02-27T12:09:41;5.90;55.20
55988;DHT22;67216;50.930;4.514;2023-02-27T12:12:19;5.90;55.00
55988;DHT22;67216;50.930;4.514;2023-02-27T12:17:48;5.80;56.40
55988;DHT22;67216;50.930;4.514;2023-02-27T12:22:52;6.40;53.70
55988;DHT22;67216;50.930;4.514;2023-02-27T12:25:36;6.30;53.40
55988;DHT22;67216;50.930;4.514;2023-02-27T12:28:16;6.10;54.90
55988;DHT22;67216;50.930;4.514;2023-02-27T12:34:00;6.00;54.30
55988;DHT22;67216;50.930;4.514;2023-02-27T12:36:27;6.10;54.60
55988;DHT22;67216;50.930;4.514;2023-02-27T12:38:53;6.10;54.00
55988;DHT22;67216;50.930;4.514;2023-02-27T12:47:41;6.10;52.20
55988;DHT22;67216;50.930;4.514;2023-02-27T12:50:15;6.00;53.10
55988;DHT22;67216;50.930;4.514;2023-02-27T12:56:02;6.00;53.20
55988;DHT22;67216;50.930;4.514;2023-02-27T12:59:03;6.10;54.20
55988;DHT22;67216;50.930;4.514;2023-02-27T13:04:47;6.60;54.90
55988;DHT22;67216;50.930;4.514;2023-02-27T13:07:27;6.60;51.10
55988;DHT22;67216;50.930;4.514;2023-02-27T13:09:58;6.60;52.60
55988;DHT22;67216;50.930;4.514;2023-02-27T13:12:39;6.30;51.30
55988;DHT22;67216;50.930;4.514;2023-02-27T13:20:37;6.40;52.90
55988;DHT22;67216;50.930;4.514;2023-02-27T13:25:41;6.50;51.50
55988;DHT22;67216;50.930;4.514;2023-02-27T13:28:12;6.90;52.50
55988;DHT22;67216;50.930;4.514;2023-02-27T13:31:25;7.20;50.30
55988;DHT22;67216;50.930;4.514;2023-02-27T13:33:53;7.20;49.40
55988;DHT22;67216;50.930;4.514;2023-02-27T13:36:44;7.00;49.90
55988;DHT22;67216;50.930;4.514;2023-02-27T13:44:54;7.40;51.60
55988;DHT22;67216;50.930;4.514;2023-02-27T13:52:49;7.10;50.90
55988;DHT22;67216;50.930;4.514;2023-02-27T13:55:30;6.90;50.00
55988;DHT22;67216;50.930;4.514;2023-02-27T13:58:00;6.50;51.50
55988;DHT22;67216;50.930;4.514;2023-02-27T14:00:31;6.30;52.10
55988;DHT22;67216;50.930;4.514;2023-02-27T14:03:07;6.10;52.20
55988;DHT22;67216;50.930;4.514;2023-02-27T14:05:42;6.10;52.60
55988;DHT22;67216;50.930;4.514;2023-02-27T14:08:26;6.10;53.00
55988;DHT22;67216;50.930;4.514;2023-02-27T14:11:20;6.10;53.20
55988;DHT22;67216;50.930;4.514;2023-02-27T14:22:00;6.40;51.60
55988;DHT22;67216;50.930;4.514;2023-02-27T14:26:55;6.60;52.00
55988;DHT22;67216;50.930;4.514;2023-02-27T14:29:25;6.50;53.10
55988;DHT22;67216;50.930;4.514;2023-02-27T14:31:59;6.60;52.70
55988;DHT22;67216;50.930;4.514;2023-02-27T14:34:26;7.00;52.10
55988;DHT22;67216;50.930;4.514;2023-02-27T14:36:57;7.20;52.70
55988;DHT22;67216;50.930;4.514;2023-02-27T14:39:30;7.40;52.30
55988;DHT22;67216;50.930;4.514;2023-02-27T14:42:22;7.00;52.30
55988;DHT22;67216;50.930;4.514;2023-02-27T14:44:53;6.60;51.50
55988;DHT22;67216;50.930;4.514;2023-02-27T14:47:37;6.40;52.90
55988;DHT22;67216;50.930;4.514;2023-02-27T14:50:23;6.30;52.70
55988;DHT22;67216;50.930;4.514;2023-02-27T14:52:49;6.30;52.80
55988;DHT22;67216;50.930;4.514;2023-02-27T14:55:27;6.30;52.90
55988;DHT22;67216;50.930;4.514;2023-02-27T15:00:41;6.40;52.70
55988;DHT22;67216;50.930;4.514;2023-02-27T15:03:21;6.40;53.20
55988;DHT22;67216;50.930;4.514;2023-02-27T15:05:53;6.50;53.70
55988;DHT22;67216;50.930;4.514;2023-02-27T15:08:24;6.30;54.30
55988;DHT22;67216;50.930;4.514;2023-02-27T15:10:55;6.30;53.60
55988;DHT22;67216;50.930;4.514;2023-02-27T15:13:33;6.30;53.90
55988;DHT22;67216;50.930;4.514;2023-02-27T15:16:27;6.10;54.60
55988;DHT22;67216;50.930;4.514;2023-02-27T15:19:13;6.10;55.10
55988;DHT22;67216;50.930;4.514;2023-02-27T15:21:43;6.20;55.40
55988;DHT22;67216;50.930;4.514;2023-02-27T15:24:35;6.30;54.40
55988;DHT22;67216;50.930;4.514;2023-02-27T15:27:04;6.50;54.70
55988;DHT22;67216;50.930;4.514;2023-02-27T15:29:37;6.40;52.50
55988;DHT22;67216;50.930;4.514;2023-02-27T15:32:05;6.20;52.10
55988;DHT22;67216;50.930;4.514;2023-02-27T15:34:33;6.00;53.40
55988;DHT22;67216;50.930;4.514;2023-02-27T15:37:00;5.80;53.90
55988;DHT22;67216;50.930;4.514;2023-02-27T15:39:28;5.80;54.40
55988;DHT22;67216;50.930;4.514;2023-02-27T15:42:03;5.90;53.40
55988;DHT22;67216;50.930;4.514;2023-02-27T15:44:39;5.80;53.50
55988;DHT22;67216;50.930;4.514;2023-02-27T15:47:06;5.80;54.40
55988;DHT22;67216;50.930;4.514;2023-02-27T15:49:37;5.90;53.80
55988;DHT22;67216;50.930;4.514;2023-02-27T15:57:27;5.90;52.80
55988;DHT22;67216;50.930;4.514;2023-02-27T15:59:56;5.80;53.60
55988;DHT22;67216;50.930;4.514;2023-02-27T16:02:27;5.90;53.60
55988;DHT22;67216;50.930;4.514;2023-02-27T16:04:54;5.90;52.80
55988;DHT22;67216;50.930;4.514;2023-02-27T16:07:23;5.80;53.50
55988;DHT22;67216;50.930;4.514;2023-02-27T16:09:57;5.80;54.10
55988;DHT22;67216;50.930;4.514;2023-02-27T16:20:39;5.60;54.30
55988;DHT22;67216;50.930;4.514;2023-02-27T16:23:25;5.50;54.10
55988;DHT22;67216;50.930;4.514;2023-02-27T16:29:12;5.20;55.20
55988;DHT22;67216;50.930;4.514;2023-02-27T16:31:34;5.30;55.00
55988;DHT22;67216;50.930;4.514;2023-02-27T16:36:58;5.30;55.20
55988;DHT22;67216;50.930;4.514;2023-02-27T16:39:26;5.20;55.70
55988;DHT22;67216;50.930;4.514;2023-02-27T16:41:56;5.20;55.50
55988;DHT22;67216;50.930;4.514;2023-02-27T16:44:22;5.30;55.60
55988;DHT22;67216;50.930;4.514;2023-02-27T16:46:51;5.20;55.90
55988;DHT22;67216;50.930;4.514;2023-02-27T16:49:20;5.10;56.10
55988;DHT22;67216;50.930;4.514;2023-02-27T16:51:48;5.10;56.30
55988;DHT22;67216;50.930;4.514;2023-02-27T16:54:18;5.10;56.00
55988;DHT22;67216;50.930;4.514;2023-02-27T16:56:45;5.10;56.10
55988;DHT22;67216;50.930;4.514;2023-02-27T16:59:33;5.00;56.70
55988;DHT22;67216;50.930;4.514;2023-02-27T17:02:06;4.90;56.90
55988;DHT22;67216;50.930;4.514;2023-02-27T17:04:32;4.80;56.70
55988;DHT22;67216;50.930;4.514;2023-02-27T17:06:59;4.80;57.10
55988;DHT22;67216;50.930;4.514;2023-02-27T17:09:26;4.70;57.40
55988;DHT22;67216;50.930;4.514;2023-02-27T17:11:53;4.80;57.00
55988;DHT22;67216;50.930;4.514;2023-02-27T17:14:19;4.80;56.90
55988;DHT22;67216;50.930;4.514;2023-02-27T17:16:48;4.80;57.30
55988;DHT22;67216;50.930;4.514;2023-02-27T17:19:14;4.80;57.70
55988;DHT22;67216;50.930;4.514;2023-02-27T17:21:45;4.80;57.80
55988;DHT22;67216;50.930;4.514;2023-02-27T17:24:16;4.90;57.20
55988;DHT22;67216;50.930;4.514;2023-02-27T17:26:41;4.90;57.10
55988;DHT22;67216;50.930;4.514;2023-02-27T17:29:09;4.90;57.20
55988;DHT22;67216;50.930;4.514;2023-02-27T17:31:37;4.80;57.50
55988;DHT22;67216;50.930;4.514;2023-02-27T17:34:04;4.80;57.60
55988;DHT22;67216;50.930;4.514;2023-02-27T17:36:33;4.70;57.70
55988;DHT22;67216;50.930;4.514;2023-02-27T17:39:02;4.60;57.80
55988;DHT22;67216;50.930;4.514;2023-02-27T17:41:32;4.60;57.70
55988;DHT22;67216;50.930;4.514;2023-02-27T17:44:00;4.50;58.10
55988;DHT22;67216;50.930;4.514;2023-02-27T17:46:29;4.60;58.40
55988;DHT22;67216;50.930;4.514;2023-02-27T17:48:55;4.60;58.20
55988;DHT22;67216;50.930;4.514;2023-02-27T17:51:26;4.60;58.20
55988;DHT22;67216;50.930;4.514;2023-02-27T17:53:52;4.50;58.20
55988;DHT22;67216;50.930;4.514;2023-02-27T17:56:20;4.50;58.50
55988;DHT22;67216;50.930;4.514;2023-02-27T17:58:49;4.40;58.80
55988;DHT22;67216;50.930;4.514;2023-02-27T18:01:18;4.30;59.10
55988;DHT22;67216;50.930;4.514;2023-02-27T18:03:48;4.40;59.10
55988;DHT22;67216;50.930;4.514;2023-02-27T18:06:14;4.50;58.70
55988;DHT22;67216;50.930;4.514;2023-02-27T18:08:42;4.50;58.70
55988;DHT22;67216;50.930;4.514;2023-02-27T18:11:14;4.60;58.40
55988;DHT22;67216;50.930;4.514;2023-02-27T18:13:43;4.60;58.20
55988;DHT22;67216;50.930;4.514;2023-02-27T18:16:10;4.60;58.50
55988;DHT22;67216;50.930;4.514;2023-02-27T18:18:37;4.40;58.80
55988;DHT22;67216;50.930;4.514;2023-02-27T18:21:12;4.40;59.10
55988;DHT22;67216;50.930;4.514;2023-02-27T18:23:39;4.30;59.10
55988;DHT22;67216;50.930;4.514;2023-02-27T18:26:05;4.30;59.30
55988;DHT22;67216;50.930;4.514;2023-02-27T18:28:33;4.30;59.50
55988;DHT22;67216;50.930;4.514;2023-02-27T18:31:00;4.20;59.60
55988;DHT22;67216;50.930;4.514;2023-02-27T18:33:25;4.30;59.70
55988;DHT22;67216;50.930;4.514;2023-02-27T18:35:51;4.40;59.50
55988;DHT22;67216;50.930;4.514;2023-02-27T18:38:17;4.30;59.50
55988;DHT22;67216;50.930;4.514;2023-02-27T18:40:44;4.10;60.10
55988;DHT22;67216;50.930;4.514;2023-02-27T18:43:10;4.10;60.50
55988;DHT22;67216;50.930;4.514;2023-02-27T18:45:36;4.00;60.60
55988;DHT22;67216;50.930;4.514;2023-02-27T18:48:02;4.00;60.80
55988;DHT22;67216;50.930;4.514;2023-02-27T18:50:29;3.90;60.80
55988;DHT22;67216;50.930;4.514;2023-02-27T18:52:55;3.80;61.50
55988;DHT22;67216;50.930;4.514;2023-02-27T18:55:21;3.80;61.40
55988;DHT22;67216;50.930;4.514;2023-02-27T18:57:49;3.80;61.50
55988;DHT22;67216;50.930;4.514;2023-02-27T19:00:18;3.70;61.90
55988;DHT22;67216;50.930;4.514;2023-02-27T19:02:46;3.60;61.90